createdAt,value
2022-10-25T00:00:43.998Z,2.88
2022-10-25T00:03:13.016Z,2.89
2022-10-25T00:05:41.346Z,2.86
2022-10-25T00:08:09.450Z,2.91
2022-10-25T00:10:37.682Z,2.85
2022-10-25T00:13:06.223Z,2.83
2022-10-25T00:15:33.788Z,2.84
2022-10-25T00:18:01.238Z,2.81
2022-10-25T00:20:28.843Z,2.69
2022-10-25T00:30:21.685Z,2.62
2022-10-25T00:32:52.915Z,2.59
2022-10-25T00:40:25.231Z,2.69
2022-10-25T00:43:53.575Z,2.65
2022-10-25T00:46:58.647Z,2.47
2022-10-25T00:49:26.233Z,2.44
2022-10-25T00:52:01.150Z,2.51
2022-10-25T00:54:33.786Z,2.48
2022-10-25T00:57:11.657Z,2.35
2022-10-25T00:59:39.771Z,2.42
2022-10-25T01:02:07.587Z,2.33
2022-10-25T01:04:35.343Z,2.40
2022-10-25T01:07:03.941Z,2.36
2022-10-25T01:09:34.572Z,2.33
2022-10-25T01:12:39.229Z,2.30
2022-10-25T01:15:07.358Z,2.30
2022-10-25T01:18:02.247Z,2.33
2022-10-25T01:20:51.325Z,2.21
2022-10-25T01:23:28.288Z,2.28
2022-10-25T01:26:10.800Z,2.29
2022-10-25T01:29:18.468Z,2.28
2022-10-25T01:31:50.838Z,2.13
2022-10-25T01:34:36.050Z,2.17
2022-10-25T01:37:21.815Z,2.22
2022-10-25T01:40:03.174Z,2.16
2022-10-25T01:42:45.627Z,2.16
2022-10-25T01:45:21.476Z,2.13
2022-10-25T01:48:30.998Z,2.13
2022-10-25T01:51:06.111Z,2.08
2022-10-25T01:53:33.678Z,2.06
2022-10-25T01:56:04.324Z,2.05
2022-10-25T01:59:00.528Z,2.01
2022-10-25T02:01:46.264Z,1.96
2022-10-25T02:05:12.575Z,2.08
2022-10-25T02:07:51.426Z,1.99
2022-10-25T02:10:42.311Z,2.02
2022-10-25T02:13:47.873Z,2.06
2022-10-25T02:16:22.333Z,1.96
2022-10-25T02:18:54.116Z,1.88
2022-10-25T02:21:24.665Z,1.88
2022-10-25T02:23:54.082Z,1.94
2022-10-25T02:26:22.389Z,1.89
2022-10-25T02:28:51.024Z,1.69
2022-10-25T02:31:21.724Z,1.84
2022-10-25T02:33:49.523Z,1.90
2022-10-25T02:36:22.475Z,1.82
2022-10-25T02:38:51.913Z,1.71
2022-10-25T02:41:22.735Z,1.86
2022-10-25T02:43:50.338Z,1.82
2022-10-25T02:46:21.016Z,1.81
2022-10-25T02:48:49.571Z,1.74
2022-10-25T02:51:18.592Z,1.74
2022-10-25T02:53:46.065Z,1.65
2022-10-25T02:56:19.549Z,1.76
2022-10-25T02:58:48.652Z,1.65
2022-10-25T03:01:17.806Z,1.64
2022-10-25T03:03:46.015Z,1.73
2022-10-25T03:06:14.091Z,1.72
2022-10-25T03:08:42.968Z,1.71
2022-10-25T03:11:57.527Z,1.72
2022-10-25T03:14:28.074Z,1.62
2022-10-25T03:17:07.133Z,1.70
2022-10-25T03:19:34.547Z,1.54
2022-10-25T03:26:45.831Z,1.70
2022-10-25T03:30:17.568Z,1.65
2022-10-25T03:32:45.101Z,1.59
2022-10-25T03:35:12.633Z,1.43
2022-10-25T03:37:40.194Z,1.53
2022-10-25T03:40:08.158Z,1.49
2022-10-25T03:42:35.699Z,1.40
2022-10-25T03:45:03.846Z,1.44
2022-10-25T03:47:31.511Z,1.51
2022-10-25T03:49:58.991Z,1.52
2022-10-25T03:52:26.490Z,1.52
2022-10-25T03:54:54.014Z,1.55
2022-10-25T03:57:25.128Z,1.53
2022-10-25T03:59:53.429Z,1.55
2022-10-25T04:02:20.889Z,1.54
2022-10-25T04:04:48.420Z,1.42
2022-10-25T04:07:15.860Z,1.52
2022-10-25T04:09:43.383Z,1.54
2022-10-25T04:12:11.697Z,1.55
2022-10-25T04:14:39.242Z,1.56
2022-10-25T04:17:06.869Z,1.53
2022-10-25T04:19:34.353Z,1.57
2022-10-25T04:22:07.428Z,1.58
2022-10-25T04:24:35.032Z,1.57
2022-10-25T04:27:02.510Z,1.59
2022-10-25T04:29:30.066Z,1.58
2022-10-25T04:31:57.622Z,1.59
2022-10-25T04:34:25.160Z,1.53
2022-10-25T04:36:52.596Z,1.60
2022-10-25T04:39:20.193Z,1.63
2022-10-25T04:41:47.661Z,1.61
2022-10-25T04:48:41.665Z,1.88
2022-10-25T04:52:05.189Z,1.90
2022-10-25T04:55:37.562Z,1.95
2022-10-25T05:06:59.145Z,2.09
2022-10-25T05:21:13.544Z,2.64
2022-10-25T05:23:41.888Z,2.63
2022-10-25T05:26:15.231Z,2.69
2022-10-25T05:28:44.851Z,2.63
2022-10-25T05:31:17.992Z,2.78
2022-10-25T05:33:46.259Z,2.98
2022-10-25T05:36:14.488Z,3.15
2022-10-25T05:38:42.147Z,3.33
2022-10-25T05:41:12.108Z,3.58
2022-10-25T05:43:40.111Z,3.80
2022-10-25T05:46:10.697Z,3.90
2022-10-25T05:48:38.638Z,4.14
2022-10-25T05:54:26.478Z,4.52
2022-10-25T05:56:54.034Z,4.80
2022-10-25T05:59:23.910Z,4.91
2022-10-25T06:01:51.670Z,5.08
2022-10-25T06:04:19.227Z,5.27
2022-10-25T06:06:47.689Z,5.48
2022-10-25T06:09:15.198Z,5.66
2022-10-25T06:11:42.787Z,5.91
2022-10-25T06:26:26.679Z,8.69
2022-10-25T06:44:59.305Z,8.86
2022-10-25T06:53:19.426Z,9.77
2022-10-25T07:00:25.823Z,9.33
2022-10-25T07:03:00.436Z,9.04
2022-10-25T07:05:28.037Z,8.91
2022-10-25T07:07:55.930Z,9.03
2022-10-25T07:10:23.546Z,9.17
2022-10-25T07:12:51.027Z,9.22
2022-10-25T07:17:47.294Z,9.38
2022-10-25T07:20:15.059Z,9.55
2022-10-25T07:22:42.532Z,10.07
2022-10-25T07:25:10.190Z,10.54
2022-10-25T07:27:37.760Z,10.86
2022-10-25T07:30:05.603Z,11.04
2022-10-25T07:32:33.106Z,11.00
2022-10-25T07:35:00.723Z,10.84
2022-10-25T07:37:28.282Z,10.88
2022-10-25T07:39:55.795Z,10.96
2022-10-25T07:42:23.240Z,10.96
2022-10-25T07:44:50.794Z,11.02
2022-10-25T07:47:18.230Z,11.46
2022-10-25T07:49:45.667Z,11.88
2022-10-25T07:52:14.069Z,12.50
2022-10-25T07:54:41.497Z,13.06
2022-10-25T07:57:09.960Z,13.28
2022-10-25T07:59:37.388Z,13.16
2022-10-25T08:02:04.894Z,13.13
2022-10-25T08:04:33.208Z,13.22
2022-10-25T08:07:03.288Z,13.26
2022-10-25T08:09:38.257Z,13.29
2022-10-25T08:12:06.360Z,13.65
2022-10-25T08:14:39.671Z,14.26
2022-10-25T08:17:11.629Z,14.77
2022-10-25T08:19:39.151Z,15.09
2022-10-25T08:22:06.577Z,15.62
2022-10-25T08:24:38.792Z,16.65
2022-10-25T08:27:06.584Z,17.64
2022-10-25T08:29:33.996Z,18.50
2022-10-25T08:32:03.924Z,19.23
2022-10-25T08:34:33.205Z,19.93
2022-10-25T08:37:00.851Z,20.64
2022-10-25T08:39:30.934Z,21.18
2022-10-25T08:42:00.769Z,21.80
2022-10-25T08:44:43.967Z,22.62
2022-10-25T08:47:34.087Z,23.12
2022-10-25T08:50:19.545Z,23.22
2022-10-25T08:52:53.788Z,23.36
2022-10-25T08:55:41.687Z,24.01
2022-10-25T08:58:29.768Z,24.02
2022-10-25T09:01:01.558Z,24.22
2022-10-25T09:03:29.344Z,24.27
2022-10-25T09:06:24.295Z,24.90
2022-10-25T09:09:27.037Z,25.40
2022-10-25T09:12:17.315Z,25.60
2022-10-25T09:14:59.168Z,25.30
2022-10-25T09:17:38.860Z,25.57
2022-10-25T09:20:21.822Z,26.08
2022-10-25T09:22:54.529Z,25.86
2022-10-25T09:25:30.752Z,26.27
2022-10-25T09:28:07.305Z,26.44
2022-10-25T09:30:40.775Z,26.54
2022-10-25T09:33:13.806Z,26.60
2022-10-25T09:35:45.541Z,26.50
2022-10-25T09:38:31.667Z,26.38
2022-10-25T09:41:26.264Z,26.77
2022-10-25T09:44:06.879Z,26.65
2022-10-25T09:46:43.223Z,26.26
2022-10-25T09:49:10.682Z,27.66
2022-10-25T09:52:19.506Z,26.78
2022-10-25T09:54:54.522Z,25.64
2022-10-25T09:57:22.183Z,25.12
2022-10-25T09:59:51.608Z,24.72
2022-10-25T10:02:25.323Z,24.32
2022-10-25T10:04:54.038Z,24.15
2022-10-25T10:07:36.029Z,23.96
2022-10-25T10:10:10.009Z,23.44
2022-10-25T10:13:13.019Z,23.54
2022-10-25T10:15:57.072Z,22.76
2022-10-25T10:18:29.783Z,21.91
2022-10-25T10:21:28.290Z,21.78
2022-10-25T10:24:02.697Z,21.13
2022-10-25T10:26:51.670Z,20.87
2022-10-25T10:29:24.632Z,19.89
2022-10-25T10:32:05.269Z,19.46
2022-10-25T10:34:39.910Z,19.10
2022-10-25T10:37:13.498Z,18.68
2022-10-25T10:40:08.278Z,18.56
2022-10-25T10:42:42.938Z,18.10
2022-10-25T10:45:18.430Z,17.96
2022-10-25T10:47:56.756Z,17.88
2022-10-25T10:50:32.010Z,17.86
2022-10-25T10:53:22.361Z,18.22
2022-10-25T10:55:52.646Z,17.93
2022-10-25T10:58:24.731Z,18.27
2022-10-25T11:01:09.340Z,18.97
2022-10-25T11:03:45.043Z,19.07
2022-10-25T11:06:50.783Z,19.70
2022-10-25T11:09:25.595Z,18.93
2022-10-25T11:12:07.757Z,18.84
2022-10-25T11:14:35.443Z,18.74
2022-10-25T11:17:17.132Z,19.54
2022-10-25T11:19:59.644Z,20.79
2022-10-25T11:22:50.429Z,21.36
2022-10-25T11:25:26.829Z,21.94
2022-10-25T11:28:16.235Z,22.71
2022-10-25T11:30:49.766Z,23.28
2022-10-25T11:33:45.304Z,23.43
2022-10-25T11:36:35.417Z,22.93
2022-10-25T11:39:12.941Z,21.45
2022-10-25T11:41:53.576Z,21.73
2022-10-25T11:44:36.441Z,21.39
2022-10-25T11:47:18.525Z,22.17
2022-10-25T11:50:15.182Z,22.59
2022-10-25T11:53:10.267Z,20.40
2022-10-25T11:56:03.997Z,18.17
2022-10-25T11:59:23.407Z,16.53
2022-10-25T12:02:21.552Z,14.91
2022-10-25T12:04:49.105Z,13.69
2022-10-25T12:07:25.301Z,12.85
2022-10-25T12:10:26.042Z,12.41
2022-10-25T12:13:12.120Z,11.84
2022-10-25T12:15:43.539Z,11.19
2022-10-25T12:18:16.586Z,10.97
2022-10-25T12:20:47.295Z,10.56
2022-10-25T12:23:19.029Z,10.24
2022-10-25T12:26:13.803Z,10.20
2022-10-25T12:28:46.675Z,9.79
2022-10-25T12:31:29.841Z,9.60
2022-10-25T12:34:14.586Z,9.37
2022-10-25T12:36:46.069Z,9.23
2022-10-25T12:39:18.414Z,9.04
2022-10-25T12:41:53.146Z,8.83
2022-10-25T12:44:29.453Z,8.70
2022-10-25T12:47:08.872Z,8.60
2022-10-25T12:50:02.519Z,8.47
2022-10-25T12:52:59.745Z,8.41
2022-10-25T12:55:36.182Z,8.28
2022-10-25T12:58:26.324Z,8.28
2022-10-25T13:01:18.798Z,8.21
2022-10-25T13:04:08.046Z,8.02
2022-10-25T13:06:44.312Z,7.92
2022-10-25T13:09:15.548Z,7.80
2022-10-25T13:11:48.983Z,7.78
2022-10-25T13:14:27.542Z,7.64
2022-10-25T13:17:16.758Z,7.69
2022-10-25T13:20:00.798Z,7.48
2022-10-25T13:22:35.652Z,7.34
2022-10-25T13:25:12.986Z,7.38
2022-10-25T13:28:26.559Z,7.35
2022-10-25T13:31:28.940Z,7.25
2022-10-25T13:34:28.704Z,7.18
2022-10-25T13:37:01.279Z,7.04
2022-10-25T13:39:33.388Z,6.97
2022-10-25T13:42:26.341Z,6.95
2022-10-25T13:44:56.923Z,6.83
2022-10-25T13:47:46.737Z,6.84
2022-10-25T13:50:29.199Z,6.69
2022-10-25T13:53:31.331Z,6.74
2022-10-25T13:56:04.543Z,6.59
2022-10-25T13:58:48.147Z,6.42
2022-10-25T14:01:15.719Z,6.49
2022-10-25T14:03:50.199Z,6.48
2022-10-25T14:06:29.420Z,6.42
2022-10-25T14:09:09.534Z,6.41
2022-10-25T14:11:55.808Z,6.25
2022-10-25T14:14:33.569Z,6.16
2022-10-25T14:17:11.910Z,6.07
2022-10-25T14:19:47.488Z,6.03
2022-10-25T14:22:36.486Z,5.96
2022-10-25T14:25:20.854Z,5.78
2022-10-25T14:27:48.898Z,5.83
2022-10-25T14:30:27.238Z,5.74
2022-10-25T14:33:03.894Z,5.74
2022-10-25T14:35:37.237Z,5.61
2022-10-25T14:38:16.367Z,5.68
2022-10-25T14:40:59.701Z,5.57
2022-10-25T14:43:35.822Z,5.58
2022-10-25T14:46:14.328Z,5.50
2022-10-25T14:48:47.005Z,5.41
2022-10-25T14:51:25.744Z,5.36
2022-10-25T14:53:57.811Z,5.42
2022-10-25T14:56:36.598Z,5.33
2022-10-25T14:59:07.942Z,5.27
2022-10-25T15:01:36.112Z,5.29
2022-10-25T15:04:03.809Z,5.25
2022-10-25T15:06:32.704Z,5.18
2022-10-25T15:09:40.634Z,5.16
2022-10-25T15:12:04.581Z,5.25
2022-10-25T15:14:32.791Z,5.05
2022-10-25T15:17:14.987Z,5.09
2022-10-25T15:22:43.613Z,5.10
2022-10-25T15:25:23.102Z,5.09
2022-10-25T15:27:52.418Z,4.91
2022-10-25T15:30:59.211Z,5.01
2022-10-25T15:33:31.932Z,4.78
2022-10-25T15:36:01.836Z,4.81
2022-10-25T15:39:06.199Z,4.86
2022-10-25T15:41:28.176Z,4.79
2022-10-25T15:43:55.712Z,4.68
2022-10-25T15:46:33.476Z,4.78
2022-10-25T15:49:04.475Z,4.82
2022-10-25T15:51:39.280Z,4.75
2022-10-25T15:54:21.826Z,4.70
2022-10-25T15:56:50.582Z,4.78
2022-10-25T15:59:18.208Z,4.74
2022-10-25T16:01:49.140Z,4.73
2022-10-25T16:04:19.259Z,4.63
2022-10-25T16:06:48.020Z,4.67
2022-10-25T16:09:15.593Z,4.66
2022-10-25T16:11:47.811Z,4.57
2022-10-25T16:14:22.491Z,4.62
2022-10-25T16:16:50.640Z,4.55
2022-10-25T16:19:19.575Z,4.52
2022-10-25T16:21:47.893Z,4.56
2022-10-25T16:24:15.485Z,4.54
2022-10-25T16:26:45.844Z,4.35
2022-10-25T16:29:19.351Z,4.50
2022-10-25T16:31:47.167Z,4.48
2022-10-25T16:34:19.693Z,4.42
2022-10-25T16:36:48.898Z,4.45
2022-10-25T16:39:17.519Z,4.38
2022-10-25T16:41:46.327Z,4.38
2022-10-25T16:44:18.187Z,4.37
2022-10-25T16:46:46.411Z,4.34
2022-10-25T16:49:14.032Z,4.26
2022-10-25T16:51:41.975Z,4.23
2022-10-25T16:54:11.261Z,4.30
2022-10-25T16:56:39.666Z,4.31
2022-10-25T16:59:07.157Z,4.23
2022-10-25T17:01:36.004Z,4.22
2022-10-25T17:04:05.470Z,4.17
2022-10-25T17:06:41.740Z,4.23
2022-10-25T17:09:10.281Z,4.13
2022-10-25T17:11:38.183Z,4.19
2022-10-25T17:14:06.491Z,4.05
2022-10-25T17:16:35.682Z,4.12
2022-10-25T17:19:04.102Z,4.08
2022-10-25T17:21:33.441Z,4.04
2022-10-25T17:24:04.013Z,3.91
2022-10-25T17:26:31.598Z,3.98
2022-10-25T17:29:01.028Z,3.91
2022-10-25T17:31:28.993Z,3.84
2022-10-25T17:33:57.108Z,3.92
2022-10-25T17:36:26.085Z,3.87
2022-10-25T17:38:54.520Z,3.77
2022-10-25T17:41:22.251Z,3.85
2022-10-25T17:43:52.025Z,3.77
2022-10-25T17:46:26.033Z,3.78
2022-10-25T17:48:55.945Z,3.69
2022-10-25T17:51:23.892Z,3.75
2022-10-25T17:53:56.074Z,3.69
2022-10-25T17:56:25.674Z,3.73
2022-10-25T17:58:54.610Z,3.69
2022-10-25T18:01:25.592Z,3.67
2022-10-25T18:03:54.914Z,3.65
2022-10-25T18:06:25.166Z,3.68
2022-10-25T18:08:54.520Z,3.63
2022-10-25T18:11:23.984Z,3.62
2022-10-25T18:13:56.690Z,3.56
2022-10-25T18:16:27.888Z,3.55
2022-10-25T18:18:57.143Z,3.52
2022-10-25T18:21:25.143Z,3.50
2022-10-25T18:23:57.832Z,3.49
2022-10-25T18:26:25.873Z,3.43
2022-10-25T18:28:53.852Z,3.42
2022-10-25T18:31:21.623Z,3.42
2022-10-25T18:33:49.277Z,3.42
2022-10-25T18:36:19.576Z,3.33
2022-10-25T18:38:49.779Z,3.38
2022-10-25T18:41:28.444Z,3.34
2022-10-25T18:43:57.176Z,3.38
2022-10-25T18:46:27.513Z,3.33
2022-10-25T18:48:57.145Z,3.31
2022-10-25T18:51:26.959Z,3.30
2022-10-25T18:53:59.593Z,3.28
2022-10-25T18:56:28.781Z,3.26
2022-10-25T18:58:58.271Z,3.15
2022-10-25T19:01:32.891Z,3.19
2022-10-25T19:04:03.777Z,3.13
2022-10-25T19:06:32.698Z,3.10
2022-10-25T19:09:05.392Z,3.08
2022-10-25T19:11:34.693Z,3.04
2022-10-25T19:14:04.105Z,3.00
2022-10-25T19:16:32.025Z,2.97
2022-10-25T19:19:07.359Z,2.97
2022-10-25T19:21:36.343Z,2.91
2022-10-25T19:24:04.867Z,2.87
2022-10-25T19:26:32.924Z,2.84
2022-10-25T19:29:01.221Z,2.77
2022-10-25T19:31:29.733Z,2.79
2022-10-25T19:34:04.068Z,2.79
2022-10-25T19:36:32.417Z,2.77
2022-10-25T19:39:01.515Z,2.72
2022-10-25T19:41:33.867Z,2.60
2022-10-25T19:44:01.691Z,2.61
2022-10-25T19:46:29.358Z,2.61
2022-10-25T19:49:00.321Z,2.51
2022-10-25T19:51:28.790Z,2.61
2022-10-25T19:53:56.388Z,2.64
2022-10-25T19:56:24.316Z,2.64
2022-10-25T19:58:52.010Z,2.66
2022-10-25T20:01:23.697Z,2.59
2022-10-25T20:03:54.802Z,2.68
2022-10-25T20:06:25.954Z,2.70
2022-10-25T20:08:55.221Z,2.63
2022-10-25T20:11:24.126Z,2.54
2022-10-25T20:13:55.996Z,2.54
2022-10-25T20:16:24.241Z,2.64
2022-10-25T20:18:51.967Z,2.66
2022-10-25T20:21:27.685Z,2.68
2022-10-25T20:23:58.040Z,2.71
2022-10-25T20:26:28.340Z,2.66
2022-10-25T20:28:58.777Z,2.67
2022-10-25T20:31:28.759Z,2.66
2022-10-25T20:33:57.198Z,2.53
2022-10-25T20:36:25.602Z,2.52
2022-10-25T20:38:53.357Z,2.56
2022-10-25T20:41:23.409Z,2.55
2022-10-25T20:43:56.738Z,2.55
2022-10-25T20:46:26.369Z,2.45
2022-10-25T20:48:54.206Z,2.45
2022-10-25T20:59:20.764Z,2.46
2022-10-25T21:02:52.741Z,2.48
2022-10-25T21:06:57.068Z,2.43
2022-10-25T21:10:58.279Z,2.42
2022-10-25T21:23:20.880Z,2.33
2022-10-25T21:26:00.785Z,2.26
2022-10-25T21:28:32.585Z,2.23
2022-10-25T21:31:02.101Z,2.16
2022-10-25T21:33:29.692Z,2.27
2022-10-25T21:36:11.717Z,2.21
2022-10-25T21:38:39.588Z,2.19
2022-10-25T21:41:12.789Z,2.25
2022-10-25T21:43:46.001Z,2.29
2022-10-25T21:46:16.770Z,2.26
2022-10-25T21:48:47.289Z,2.26
2022-10-25T21:51:15.125Z,2.22
2022-10-25T21:53:42.683Z,2.21
2022-10-25T21:56:15.219Z,2.18
2022-10-25T21:58:45.096Z,2.18
2022-10-25T22:01:18.519Z,2.14
2022-10-25T22:03:46.198Z,2.21
2022-10-25T22:06:17.918Z,2.26
2022-10-25T22:08:46.145Z,2.27
2022-10-25T22:11:19.468Z,2.33
2022-10-25T22:13:47.752Z,2.49
2022-10-25T22:16:17.986Z,2.49
2022-10-25T22:18:51.616Z,2.53
2022-10-25T22:21:19.504Z,2.58
2022-10-25T22:23:47.264Z,2.60
2022-10-25T22:26:16.876Z,2.63
2022-10-25T22:28:44.535Z,2.62
2022-10-25T22:31:17.473Z,2.61
2022-10-25T22:33:45.476Z,2.65
2022-10-25T22:36:16.535Z,2.65
2022-10-25T22:38:45.279Z,2.69
2022-10-25T22:41:15.635Z,2.65
2022-10-25T22:43:43.838Z,2.76
2022-10-25T22:46:14.513Z,2.79
2022-10-25T22:48:43.785Z,2.86
2022-10-25T22:51:11.977Z,2.86
2022-10-25T22:53:40.382Z,2.88
2022-10-25T22:56:15.510Z,2.84
2022-10-25T22:58:49.491Z,2.82
2022-10-25T23:01:25.764Z,2.85
2022-10-25T23:03:55.466Z,2.87
2022-10-25T23:06:28.880Z,2.88
2022-10-25T23:08:58.321Z,2.82
2022-10-25T23:11:31.172Z,2.85
2022-10-25T23:13:59.513Z,2.87
2022-10-25T23:16:28.043Z,2.88
2022-10-25T23:18:56.226Z,2.83
2022-10-25T23:21:25.887Z,2.87
2022-10-25T23:23:54.325Z,2.84
2022-10-25T23:26:23.092Z,2.78
2022-10-25T23:28:51.097Z,2.71
2022-10-25T23:31:18.715Z,2.61
2022-10-25T23:33:50.948Z,2.61
2022-10-25T23:36:20.262Z,2.62
2022-10-25T23:38:49.487Z,2.75
2022-10-25T23:41:18.337Z,2.77
2022-10-25T23:43:46.018Z,2.68
2022-10-25T23:46:14.304Z,2.73
2022-10-25T23:48:42.123Z,2.66
2022-10-25T23:51:15.541Z,2.69
2022-10-25T23:53:43.662Z,2.70
2022-10-25T23:56:12.946Z,2.66
2022-10-25T23:58:40.812Z,2.60
